sensor_id;sensor_type;location;lat;lon;timestamp;P1;durP1;ratioP1;P2;durP2;ratioP2
2622;SDS011;1321;48.690;9.022;2023-08-06T00:01:44;13.00;;;12.50;;
2622;SDS011;1321;48.690;9.022;2023-08-06T00:04:14;13.03;;;12.73;;
2622;SDS011;1321;48.690;9.022;2023-08-06T00:06:46;12.83;;;12.53;;
2622;SDS011;1321;48.690;9.022;2023-08-06T00:09:22;12.93;;;12.53;;
2622;SDS011;1321;48.690;9.022;2023-08-06T00:11:53;13.00;;;12.60;;
2622;SDS011;1321;48.690;9.022;2023-08-06T00:14:24;12.80;;;12.50;;
2622;SDS011;1321;48.690;9.022;2023-08-06T00:16:57;13.00;;;12.60;;
2622;SDS011;1321;48.690;9.022;2023-08-06T00:19:31;12.93;;;12.63;;
2622;SDS011;1321;48.690;9.022;2023-08-06T00:22:07;12.77;;;12.47;;
2622;SDS011;1321;48.690;9.022;2023-08-06T00:24:40;12.73;;;12.43;;
2622;SDS011;1321;48.690;9.022;2023-08-06T00:27:15;13.03;;;12.63;;
2622;SDS011;1321;48.690;9.022;2023-08-06T00:29:49;13.83;;;13.27;;
2622;SDS011;1321;48.690;9.022;2023-08-06T00:32:23;13.63;;;13.03;;
2622;SDS011;1321;48.690;9.022;2023-08-06T00:34:55;13.40;;;13.10;;
2622;SDS011;1321;48.690;9.022;2023-08-06T00:37:32;13.10;;;12.70;;
2622;SDS011;1321;48.690;9.022;2023-08-06T00:40:05;13.37;;;12.97;;
2622;SDS011;1321;48.690;9.022;2023-08-06T00:42:36;13.83;;;13.40;;
2622;SDS011;1321;48.690;9.022;2023-08-06T00:45:11;13.23;;;12.90;;
2622;SDS011;1321;48.690;9.022;2023-08-06T00:47:43;13.10;;;12.80;;
2622;SDS011;1321;48.690;9.022;2023-08-06T00:50:26;13.83;;;13.27;;
2622;SDS011;1321;48.690;9.022;2023-08-06T00:53:02;13.67;;;13.17;;
2622;SDS011;1321;48.690;9.022;2023-08-06T00:55:39;13.50;;;13.10;;
2622;SDS011;1321;48.690;9.022;2023-08-06T00:58:17;13.57;;;13.07;;
2622;SDS011;1321;48.690;9.022;2023-08-06T01:00:50;12.90;;;12.57;;
2622;SDS011;1321;48.690;9.022;2023-08-06T01:03:23;13.60;;;13.10;;
2622;SDS011;1321;48.690;9.022;2023-08-06T01:06:03;13.20;;;12.80;;
2622;SDS011;1321;48.690;9.022;2023-08-06T01:08:38;13.17;;;12.73;;
2622;SDS011;1321;48.690;9.022;2023-08-06T01:11:22;13.57;;;13.17;;
2622;SDS011;1321;48.690;9.022;2023-08-06T01:14:08;13.70;;;13.30;;
2622;SDS011;1321;48.690;9.022;2023-08-06T01:16:46;13.70;;;13.30;;
2622;SDS011;1321;48.690;9.022;2023-08-06T01:19:17;13.53;;;13.13;;
2622;SDS011;1321;48.690;9.022;2023-08-06T01:22:01;14.40;;;13.90;;
2622;SDS011;1321;48.690;9.022;2023-08-06T01:24:34;14.13;;;13.70;;
2622;SDS011;1321;48.690;9.022;2023-08-06T01:27:07;13.60;;;13.20;;
2622;SDS011;1321;48.690;9.022;2023-08-06T01:29:48;13.20;;;12.80;;
2622;SDS011;1321;48.690;9.022;2023-08-06T01:32:29;13.30;;;13.00;;
2622;SDS011;1321;48.690;9.022;2023-08-06T01:35:05;13.53;;;13.10;;
2622;SDS011;1321;48.690;9.022;2023-08-06T01:37:48;13.53;;;13.13;;
2622;SDS011;1321;48.690;9.022;2023-08-06T01:40:21;13.70;;;13.30;;
2622;SDS011;1321;48.690;9.022;2023-08-06T01:42:56;13.20;;;12.70;;
2622;SDS011;1321;48.690;9.022;2023-08-06T01:45:31;13.27;;;12.97;;
2622;SDS011;1321;48.690;9.022;2023-08-06T01:48:12;13.60;;;13.20;;
2622;SDS011;1321;48.690;9.022;2023-08-06T01:50:49;13.43;;;13.03;;
2622;SDS011;1321;48.690;9.022;2023-08-06T01:53:25;13.00;;;12.70;;
2622;SDS011;1321;48.690;9.022;2023-08-06T01:56:03;13.37;;;13.00;;
2622;SDS011;1321;48.690;9.022;2023-08-06T01:58:39;13.87;;;13.37;;
2622;SDS011;1321;48.690;9.022;2023-08-06T02:01:19;13.63;;;13.13;;
2622;SDS011;1321;48.690;9.022;2023-08-06T02:03:49;14.37;;;13.70;;
2622;SDS011;1321;48.690;9.022;2023-08-06T02:06:27;13.67;;;13.17;;
2622;SDS011;1321;48.690;9.022;2023-08-06T02:09:05;13.50;;;13.10;;
2622;SDS011;1321;48.690;9.022;2023-08-06T02:11:40;13.40;;;12.93;;
2622;SDS011;1321;48.690;9.022;2023-08-06T02:14:20;13.33;;;12.93;;
2622;SDS011;1321;48.690;9.022;2023-08-06T02:16:53;13.67;;;13.17;;
2622;SDS011;1321;48.690;9.022;2023-08-06T02:19:32;13.80;;;13.20;;
2622;SDS011;1321;48.690;9.022;2023-08-06T02:22:06;13.87;;;13.47;;
2622;SDS011;1321;48.690;9.022;2023-08-06T02:24:39;13.23;;;12.83;;
2622;SDS011;1321;48.690;9.022;2023-08-06T02:27:10;14.03;;;13.53;;
2622;SDS011;1321;48.690;9.022;2023-08-06T02:29:43;13.77;;;13.27;;
2622;SDS011;1321;48.690;9.022;2023-08-06T02:32:17;13.67;;;13.23;;
2622;SDS011;1321;48.690;9.022;2023-08-06T02:34:51;13.50;;;13.20;;
2622;SDS011;1321;48.690;9.022;2023-08-06T02:37:23;13.40;;;12.90;;
2622;SDS011;1321;48.690;9.022;2023-08-06T02:39:58;13.43;;;13.07;;
2622;SDS011;1321;48.690;9.022;2023-08-06T02:42:29;13.83;;;13.43;;
2622;SDS011;1321;48.690;9.022;2023-08-06T02:45:06;14.20;;;13.60;;
2622;SDS011;1321;48.690;9.022;2023-08-06T02:47:43;13.23;;;12.83;;
2622;SDS011;1321;48.690;9.022;2023-08-06T02:50:19;13.33;;;12.83;;
2622;SDS011;1321;48.690;9.022;2023-08-06T02:52:51;13.53;;;13.10;;
2622;SDS011;1321;48.690;9.022;2023-08-06T02:55:28;14.00;;;13.40;;
2622;SDS011;1321;48.690;9.022;2023-08-06T02:58:03;13.13;;;12.67;;
2622;SDS011;1321;48.690;9.022;2023-08-06T03:00:41;13.23;;;12.93;;
2622;SDS011;1321;48.690;9.022;2023-08-06T03:03:13;13.60;;;13.10;;
2622;SDS011;1321;48.690;9.022;2023-08-06T03:05:51;13.23;;;12.83;;
2622;SDS011;1321;48.690;9.022;2023-08-06T03:08:23;13.13;;;12.73;;
2622;SDS011;1321;48.690;9.022;2023-08-06T03:10:59;13.97;;;13.43;;
2622;SDS011;1321;48.690;9.022;2023-08-06T03:13:34;12.93;;;12.47;;
2622;SDS011;1321;48.690;9.022;2023-08-06T03:16:09;13.00;;;12.70;;
2622;SDS011;1321;48.690;9.022;2023-08-06T03:18:42;12.97;;;12.67;;
2622;SDS011;1321;48.690;9.022;2023-08-06T03:21:23;12.97;;;12.57;;
2622;SDS011;1321;48.690;9.022;2023-08-06T03:24:06;13.30;;;12.80;;
2622;SDS011;1321;48.690;9.022;2023-08-06T03:26:39;13.03;;;12.63;;
2622;SDS011;1321;48.690;9.022;2023-08-06T03:29:12;12.60;;;12.30;;
2622;SDS011;1321;48.690;9.022;2023-08-06T03:31:47;13.03;;;12.60;;
2622;SDS011;1321;48.690;9.022;2023-08-06T03:34:25;13.00;;;12.60;;
2622;SDS011;1321;48.690;9.022;2023-08-06T03:37:02;13.00;;;12.60;;
2622;SDS011;1321;48.690;9.022;2023-08-06T03:39:34;12.87;;;12.47;;
2622;SDS011;1321;48.690;9.022;2023-08-06T03:42:11;13.07;;;12.67;;
2622;SDS011;1321;48.690;9.022;2023-08-06T03:44:46;13.50;;;12.90;;
2622;SDS011;1321;48.690;9.022;2023-08-06T03:47:19;12.67;;;12.37;;
2622;SDS011;1321;48.690;9.022;2023-08-06T03:49:56;13.43;;;13.03;;
2622;SDS011;1321;48.690;9.022;2023-08-06T03:52:32;12.90;;;12.60;;
2622;SDS011;1321;48.690;9.022;2023-08-06T03:55:07;13.27;;;12.97;;
2622;SDS011;1321;48.690;9.022;2023-08-06T03:57:39;13.27;;;12.77;;
2622;SDS011;1321;48.690;9.022;2023-08-06T04:00:16;13.30;;;12.90;;
2622;SDS011;1321;48.690;9.022;2023-08-06T04:02:53;13.07;;;12.67;;
2622;SDS011;1321;48.690;9.022;2023-08-06T04:05:32;13.33;;;12.90;;
2622;SDS011;1321;48.690;9.022;2023-08-06T04:08:07;14.23;;;13.27;;
2622;SDS011;1321;48.690;9.022;2023-08-06T04:10:48;12.90;;;12.50;;
2622;SDS011;1321;48.690;9.022;2023-08-06T04:13:25;13.30;;;12.93;;
2622;SDS011;1321;48.690;9.022;2023-08-06T04:16:03;13.97;;;13.43;;
2622;SDS011;1321;48.690;9.022;2023-08-06T04:18:37;12.90;;;12.60;;
2622;SDS011;1321;48.690;9.022;2023-08-06T04:21:12;13.30;;;12.90;;
2622;SDS011;1321;48.690;9.022;2023-08-06T04:23:48;13.37;;;13.07;;
2622;SDS011;1321;48.690;9.022;2023-08-06T04:26:20;13.90;;;13.50;;
2622;SDS011;1321;48.690;9.022;2023-08-06T04:28:59;13.40;;;13.00;;
2622;SDS011;1321;48.690;9.022;2023-08-06T04:31:32;13.20;;;12.80;;
2622;SDS011;1321;48.690;9.022;2023-08-06T04:34:07;13.60;;;12.90;;
2622;SDS011;1321;48.690;9.022;2023-08-06T04:36:46;13.37;;;12.97;;
2622;SDS011;1321;48.690;9.022;2023-08-06T04:39:17;12.50;;;12.20;;
2622;SDS011;1321;48.690;9.022;2023-08-06T04:41:51;12.63;;;12.33;;
2622;SDS011;1321;48.690;9.022;2023-08-06T04:44:35;12.80;;;12.40;;
2622;SDS011;1321;48.690;9.022;2023-08-06T04:47:15;12.80;;;12.50;;
2622;SDS011;1321;48.690;9.022;2023-08-06T04:49:52;13.23;;;12.73;;
2622;SDS011;1321;48.690;9.022;2023-08-06T04:52:21;12.90;;;12.60;;
2622;SDS011;1321;48.690;9.022;2023-08-06T04:55:01;13.17;;;12.77;;
2622;SDS011;1321;48.690;9.022;2023-08-06T04:57:36;12.80;;;12.40;;
2622;SDS011;1321;48.690;9.022;2023-08-06T05:00:12;12.90;;;12.40;;
2622;SDS011;1321;48.690;9.022;2023-08-06T05:02:46;12.53;;;12.23;;
2622;SDS011;1321;48.690;9.022;2023-08-06T05:05:20;12.63;;;12.13;;
2622;SDS011;1321;48.690;9.022;2023-08-06T05:07:59;12.07;;;11.77;;
2622;SDS011;1321;48.690;9.022;2023-08-06T05:10:33;12.27;;;11.97;;
2622;SDS011;1321;48.690;9.022;2023-08-06T05:13:09;12.80;;;12.30;;
2622;SDS011;1321;48.690;9.022;2023-08-06T05:15:46;12.60;;;12.30;;
2622;SDS011;1321;48.690;9.022;2023-08-06T05:18:18;12.57;;;12.27;;
2622;SDS011;1321;48.690;9.022;2023-08-06T05:20:51;12.70;;;12.40;;
2622;SDS011;1321;48.690;9.022;2023-08-06T05:23:25;12.33;;;12.03;;
2622;SDS011;1321;48.690;9.022;2023-08-06T05:25:59;12.40;;;12.10;;
2622;SDS011;1321;48.690;9.022;2023-08-06T05:28:34;12.20;;;11.90;;
2622;SDS011;1321;48.690;9.022;2023-08-06T05:31:14;12.50;;;12.10;;
2622;SDS011;1321;48.690;9.022;2023-08-06T05:33:49;12.50;;;12.00;;
2622;SDS011;1321;48.690;9.022;2023-08-06T05:36:21;12.60;;;12.20;;
2622;SDS011;1321;48.690;9.022;2023-08-06T05:38:55;12.30;;;12.10;;
2622;SDS011;1321;48.690;9.022;2023-08-06T05:41:29;12.13;;;11.83;;
2622;SDS011;1321;48.690;9.022;2023-08-06T05:44:03;12.60;;;12.27;;
2622;SDS011;1321;48.690;9.022;2023-08-06T05:46:37;12.30;;;12.00;;
2622;SDS011;1321;48.690;9.022;2023-08-06T05:49:15;12.83;;;12.50;;
2622;SDS011;1321;48.690;9.022;2023-08-06T05:51:48;12.13;;;11.83;;
2622;SDS011;1321;48.690;9.022;2023-08-06T05:54:23;12.00;;;11.70;;
2622;SDS011;1321;48.690;9.022;2023-08-06T05:56:59;12.50;;;12.10;;
2622;SDS011;1321;48.690;9.022;2023-08-06T05:59:37;11.97;;;11.67;;
2622;SDS011;1321;48.690;9.022;2023-08-06T06:02:10;12.30;;;12.00;;
2622;SDS011;1321;48.690;9.022;2023-08-06T06:04:48;11.90;;;11.70;;
2622;SDS011;1321;48.690;9.022;2023-08-06T06:07:25;12.60;;;12.27;;
2622;SDS011;1321;48.690;9.022;2023-08-06T06:09:59;12.70;;;12.30;;
2622;SDS011;1321;48.690;9.022;2023-08-06T06:12:31;12.50;;;12.20;;
2622;SDS011;1321;48.690;9.022;2023-08-06T06:15:02;13.20;;;12.80;;
2622;SDS011;1321;48.690;9.022;2023-08-06T06:17:41;13.07;;;12.67;;
2622;SDS011;1321;48.690;9.022;2023-08-06T06:20:15;12.60;;;12.30;;
2622;SDS011;1321;48.690;9.022;2023-08-06T06:22:56;12.73;;;12.43;;
2622;SDS011;1321;48.690;9.022;2023-08-06T06:25:33;12.70;;;12.40;;
2622;SDS011;1321;48.690;9.022;2023-08-06T06:28:04;12.70;;;12.43;;
2622;SDS011;1321;48.690;9.022;2023-08-06T06:30:36;12.50;;;12.20;;
2622;SDS011;1321;48.690;9.022;2023-08-06T06:33:09;12.50;;;12.30;;
2622;SDS011;1321;48.690;9.022;2023-08-06T06:35:42;13.50;;;13.13;;
2622;SDS011;1321;48.690;9.022;2023-08-06T06:38:15;13.47;;;13.07;;
2622;SDS011;1321;48.690;9.022;2023-08-06T06:40:53;12.87;;;12.57;;
2622;SDS011;1321;48.690;9.022;2023-08-06T06:43:27;12.53;;;12.33;;
2622;SDS011;1321;48.690;9.022;2023-08-06T06:46:00;12.70;;;12.30;;
2622;SDS011;1321;48.690;9.022;2023-08-06T06:48:33;12.97;;;12.67;;
2622;SDS011;1321;48.690;9.022;2023-08-06T06:51:04;12.70;;;12.40;;
2622;SDS011;1321;48.690;9.022;2023-08-06T06:54:43;13.17;;;12.77;;
2622;SDS011;1321;48.690;9.022;2023-08-06T06:57:14;12.83;;;12.50;;
2622;SDS011;1321;48.690;9.022;2023-08-06T06:59:47;12.90;;;12.50;;
2622;SDS011;1321;48.690;9.022;2023-08-06T07:02:21;13.17;;;12.67;;
2622;SDS011;1321;48.690;9.022;2023-08-06T07:04:57;13.10;;;12.70;;
2622;SDS011;1321;48.690;9.022;2023-08-06T07:07:32;13.50;;;13.20;;
2622;SDS011;1321;48.690;9.022;2023-08-06T07:10:07;13.20;;;12.90;;
2622;SDS011;1321;48.690;9.022;2023-08-06T07:12:44;13.50;;;13.20;;
2622;SDS011;1321;48.690;9.022;2023-08-06T07:15:22;13.07;;;12.77;;
2622;SDS011;1321;48.690;9.022;2023-08-06T07:18:02;13.23;;;12.83;;
2622;SDS011;1321;48.690;9.022;2023-08-06T07:20:43;13.17;;;12.87;;
2622;SDS011;1321;48.690;9.022;2023-08-06T07:23:26;12.93;;;12.63;;
2622;SDS011;1321;48.690;9.022;2023-08-06T07:26:04;13.47;;;13.07;;
2622;SDS011;1321;48.690;9.022;2023-08-06T07:28:45;13.40;;;13.10;;
2622;SDS011;1321;48.690;9.022;2023-08-06T07:31:51;14.83;;;14.43;;
2622;SDS011;1321;48.690;9.022;2023-08-06T07:34:32;13.60;;;13.30;;
2622;SDS011;1321;48.690;9.022;2023-08-06T07:37:09;13.20;;;12.90;;
2622;SDS011;1321;48.690;9.022;2023-08-06T07:39:46;12.80;;;12.40;;
2622;SDS011;1321;48.690;9.022;2023-08-06T07:42:17;12.33;;;12.13;;
2622;SDS011;1321;48.690;9.022;2023-08-06T07:44:51;12.20;;;12.00;;
2622;SDS011;1321;48.690;9.022;2023-08-06T07:47:34;12.60;;;12.40;;
2622;SDS011;1321;48.690;9.022;2023-08-06T07:50:08;13.00;;;12.70;;
2622;SDS011;1321;48.690;9.022;2023-08-06T07:52:47;12.93;;;12.73;;
2622;SDS011;1321;48.690;9.022;2023-08-06T07:55:19;12.60;;;12.40;;
2622;SDS011;1321;48.690;9.022;2023-08-06T07:58:13;13.00;;;12.70;;
2622;SDS011;1321;48.690;9.022;2023-08-06T08:00:49;12.63;;;12.43;;
2622;SDS011;1321;48.690;9.022;2023-08-06T08:03:25;13.00;;;12.70;;
2622;SDS011;1321;48.690;9.022;2023-08-06T08:06:04;12.90;;;12.70;;
2622;SDS011;1321;48.690;9.022;2023-08-06T08:08:50;13.10;;;12.80;;
2622;SDS011;1321;48.690;9.022;2023-08-06T08:11:35;13.07;;;12.87;;
2622;SDS011;1321;48.690;9.022;2023-08-06T08:14:13;12.90;;;12.60;;
2622;SDS011;1321;48.690;9.022;2023-08-06T08:16:59;12.83;;;12.63;;
2622;SDS011;1321;48.690;9.022;2023-08-06T08:19:41;13.20;;;12.90;;
2622;SDS011;1321;48.690;9.022;2023-08-06T08:22:18;12.20;;;12.00;;
2622;SDS011;1321;48.690;9.022;2023-08-06T08:24:54;12.60;;;12.30;;
2622;SDS011;1321;48.690;9.022;2023-08-06T08:27:25;12.33;;;12.10;;
2622;SDS011;1321;48.690;9.022;2023-08-06T08:29:59;12.40;;;12.20;;
2622;SDS011;1321;48.690;9.022;2023-08-06T08:32:29;12.40;;;12.20;;
2622;SDS011;1321;48.690;9.022;2023-08-06T08:35:05;13.00;;;12.70;;
2622;SDS011;1321;48.690;9.022;2023-08-06T08:37:42;12.40;;;12.20;;
2622;SDS011;1321;48.690;9.022;2023-08-06T08:40:21;13.40;;;13.10;;
2622;SDS011;1321;48.690;9.022;2023-08-06T08:42:59;13.60;;;13.30;;
2622;SDS011;1321;48.690;9.022;2023-08-06T08:45:36;13.30;;;13.00;;
2622;SDS011;1321;48.690;9.022;2023-08-06T08:48:14;13.80;;;13.40;;
2622;SDS011;1321;48.690;9.022;2023-08-06T08:50:48;13.70;;;13.40;;
2622;SDS011;1321;48.690;9.022;2023-08-06T08:53:20;14.30;;;13.90;;
2622;SDS011;1321;48.690;9.022;2023-08-06T08:55:55;14.00;;;13.70;;
2622;SDS011;1321;48.690;9.022;2023-08-06T08:58:26;13.90;;;13.60;;
2622;SDS011;1321;48.690;9.022;2023-08-06T09:01:05;13.70;;;13.40;;
2622;SDS011;1321;48.690;9.022;2023-08-06T09:03:44;13.30;;;13.00;;
2622;SDS011;1321;48.690;9.022;2023-08-06T09:06:20;13.37;;;13.00;;
2622;SDS011;1321;48.690;9.022;2023-08-06T09:09:06;13.57;;;13.27;;
2622;SDS011;1321;48.690;9.022;2023-08-06T09:11:42;13.30;;;13.00;;
2622;SDS011;1321;48.690;9.022;2023-08-06T09:14:23;13.97;;;13.60;;
2622;SDS011;1321;48.690;9.022;2023-08-06T09:16:56;13.40;;;13.10;;
2622;SDS011;1321;48.690;9.022;2023-08-06T09:19:30;13.60;;;13.30;;
2622;SDS011;1321;48.690;9.022;2023-08-06T09:22:05;13.60;;;13.30;;
2622;SDS011;1321;48.690;9.022;2023-08-06T09:24:45;13.53;;;13.23;;
2622;SDS011;1321;48.690;9.022;2023-08-06T09:27:24;13.50;;;13.20;;
2622;SDS011;1321;48.690;9.022;2023-08-06T09:29:57;13.70;;;13.40;;
2622;SDS011;1321;48.690;9.022;2023-08-06T09:32:44;13.70;;;13.40;;
2622;SDS011;1321;48.690;9.022;2023-08-06T09:35:18;13.80;;;13.50;;
2622;SDS011;1321;48.690;9.022;2023-08-06T09:37:53;13.63;;;13.33;;
2622;SDS011;1321;48.690;9.022;2023-08-06T09:40:38;13.70;;;13.40;;
2622;SDS011;1321;48.690;9.022;2023-08-06T09:43:18;13.37;;;13.07;;
2622;SDS011;1321;48.690;9.022;2023-08-06T09:45:52;13.50;;;13.20;;
2622;SDS011;1321;48.690;9.022;2023-08-06T09:48:31;13.20;;;12.90;;
2622;SDS011;1321;48.690;9.022;2023-08-06T09:51:07;13.50;;;13.20;;
2622;SDS011;1321;48.690;9.022;2023-08-06T09:53:42;13.20;;;12.90;;
2622;SDS011;1321;48.690;9.022;2023-08-06T09:56:22;13.30;;;13.00;;
2622;SDS011;1321;48.690;9.022;2023-08-06T09:59:00;13.10;;;12.80;;
2622;SDS011;1321;48.690;9.022;2023-08-06T10:01:35;13.03;;;12.77;;
2622;SDS011;1321;48.690;9.022;2023-08-06T10:04:07;13.23;;;12.93;;
2622;SDS011;1321;48.690;9.022;2023-08-06T10:06:51;13.20;;;12.90;;
2622;SDS011;1321;48.690;9.022;2023-08-06T10:09:25;13.00;;;12.60;;
2622;SDS011;1321;48.690;9.022;2023-08-06T10:12:03;13.00;;;12.70;;
2622;SDS011;1321;48.690;9.022;2023-08-06T10:14:41;13.20;;;12.90;;
2622;SDS011;1321;48.690;9.022;2023-08-06T10:17:11;13.30;;;13.00;;
2622;SDS011;1321;48.690;9.022;2023-08-06T10:19:46;13.40;;;13.00;;
2622;SDS011;1321;48.690;9.022;2023-08-06T10:22:23;13.20;;;12.90;;
2622;SDS011;1321;48.690;9.022;2023-08-06T10:24:57;13.37;;;13.07;;
2622;SDS011;1321;48.690;9.022;2023-08-06T10:27:32;13.07;;;12.77;;
2622;SDS011;1321;48.690;9.022;2023-08-06T10:30:22;12.60;;;12.40;;
2622;SDS011;1321;48.690;9.022;2023-08-06T10:32:59;12.60;;;12.30;;
2622;SDS011;1321;48.690;9.022;2023-08-06T10:35:35;12.90;;;12.60;;
2622;SDS011;1321;48.690;9.022;2023-08-06T10:38:08;13.00;;;12.70;;
2622;SDS011;1321;48.690;9.022;2023-08-06T10:40:48;13.10;;;12.80;;
2622;SDS011;1321;48.690;9.022;2023-08-06T10:43:26;13.00;;;12.70;;
2622;SDS011;1321;48.690;9.022;2023-08-06T10:46:02;12.90;;;12.60;;
2622;SDS011;1321;48.690;9.022;2023-08-06T10:48:46;13.10;;;12.80;;
2622;SDS011;1321;48.690;9.022;2023-08-06T10:51:19;13.30;;;13.00;;
2622;SDS011;1321;48.690;9.022;2023-08-06T10:53:50;13.40;;;13.10;;
2622;SDS011;1321;48.690;9.022;2023-08-06T10:56:39;13.30;;;13.00;;
2622;SDS011;1321;48.690;9.022;2023-08-06T10:59:11;13.30;;;13.00;;
2622;SDS011;1321;48.690;9.022;2023-08-06T11:01:49;13.60;;;13.30;;
2622;SDS011;1321;48.690;9.022;2023-08-06T11:04:24;14.17;;;13.60;;
2622;SDS011;1321;48.690;9.022;2023-08-06T11:07:07;13.87;;;13.57;;
2622;SDS011;1321;48.690;9.022;2023-08-06T11:09:38;13.50;;;13.20;;
2622;SDS011;1321;48.690;9.022;2023-08-06T11:12:10;13.70;;;13.40;;
2622;SDS011;1321;48.690;9.022;2023-08-06T11:14:41;13.90;;;13.53;;
2622;SDS011;1321;48.690;9.022;2023-08-06T11:17:20;13.70;;;13.40;;
2622;SDS011;1321;48.690;9.022;2023-08-06T11:19:53;14.10;;;13.70;;
2622;SDS011;1321;48.690;9.022;2023-08-06T11:22:28;14.33;;;13.83;;
2622;SDS011;1321;48.690;9.022;2023-08-06T11:25:01;14.10;;;13.70;;
2622;SDS011;1321;48.690;9.022;2023-08-06T11:27:36;13.87;;;13.57;;
2622;SDS011;1321;48.690;9.022;2023-08-06T11:30:07;14.10;;;13.77;;
2622;SDS011;1321;48.690;9.022;2023-08-06T11:32:50;13.80;;;13.50;;
2622;SDS011;1321;48.690;9.022;2023-08-06T11:35:21;13.83;;;13.53;;
2622;SDS011;1321;48.690;9.022;2023-08-06T11:37:55;14.10;;;13.70;;
2622;SDS011;1321;48.690;9.022;2023-08-06T11:40:31;13.90;;;13.60;;
2622;SDS011;1321;48.690;9.022;2023-08-06T11:43:12;14.17;;;13.87;;
2622;SDS011;1321;48.690;9.022;2023-08-06T11:45:50;13.70;;;13.40;;
2622;SDS011;1321;48.690;9.022;2023-08-06T11:48:28;14.10;;;13.80;;
2622;SDS011;1321;48.690;9.022;2023-08-06T11:51:03;14.00;;;13.70;;
2622;SDS011;1321;48.690;9.022;2023-08-06T11:53:46;14.10;;;13.80;;
2622;SDS011;1321;48.690;9.022;2023-08-06T11:56:16;14.20;;;13.90;;
2622;SDS011;1321;48.690;9.022;2023-08-06T11:58:48;14.07;;;13.77;;
2622;SDS011;1321;48.690;9.022;2023-08-06T12:01:28;13.60;;;13.30;;
2622;SDS011;1321;48.690;9.022;2023-08-06T12:04:05;13.40;;;13.10;;
2622;SDS011;1321;48.690;9.022;2023-08-06T12:06:41;13.23;;;12.83;;
2622;SDS011;1321;48.690;9.022;2023-08-06T12:09:17;13.60;;;13.30;;
2622;SDS011;1321;48.690;9.022;2023-08-06T12:11:49;13.70;;;13.30;;
2622;SDS011;1321;48.690;9.022;2023-08-06T12:14:21;13.50;;;13.20;;
2622;SDS011;1321;48.690;9.022;2023-08-06T12:17:03;13.20;;;12.90;;
2622;SDS011;1321;48.690;9.022;2023-08-06T12:19:34;13.43;;;13.07;;
2622;SDS011;1321;48.690;9.022;2023-08-06T12:22:07;13.50;;;13.20;;
2622;SDS011;1321;48.690;9.022;2023-08-06T12:24:47;13.60;;;13.20;;
2622;SDS011;1321;48.690;9.022;2023-08-06T12:27:27;13.43;;;13.13;;
2622;SDS011;1321;48.690;9.022;2023-08-06T12:30:11;13.50;;;13.20;;
2622;SDS011;1321;48.690;9.022;2023-08-06T12:32:48;13.70;;;13.40;;
2622;SDS011;1321;48.690;9.022;2023-08-06T12:35:40;13.27;;;12.97;;
2622;SDS011;1321;48.690;9.022;2023-08-06T12:38:16;13.00;;;12.70;;
2622;SDS011;1321;48.690;9.022;2023-08-06T12:40:54;13.40;;;13.10;;
2622;SDS011;1321;48.690;9.022;2023-08-06T12:43:26;13.50;;;13.20;;
2622;SDS011;1321;48.690;9.022;2023-08-06T12:46:03;13.00;;;12.80;;
2622;SDS011;1321;48.690;9.022;2023-08-06T12:48:37;13.40;;;13.10;;
2622;SDS011;1321;48.690;9.022;2023-08-06T12:51:10;12.80;;;12.50;;
2622;SDS011;1321;48.690;9.022;2023-08-06T12:53:45;12.87;;;12.57;;
2622;SDS011;1321;48.690;9.022;2023-08-06T12:56:29;12.90;;;12.60;;
2622;SDS011;1321;48.690;9.022;2023-08-06T12:59:03;12.80;;;12.60;;
2622;SDS011;1321;48.690;9.022;2023-08-06T13:01:38;13.63;;;13.33;;
2622;SDS011;1321;48.690;9.022;2023-08-06T13:04:14;13.30;;;13.00;;
2622;SDS011;1321;48.690;9.022;2023-08-06T13:06:51;13.10;;;12.80;;
2622;SDS011;1321;48.690;9.022;2023-08-06T13:09:35;13.40;;;13.10;;
2622;SDS011;1321;48.690;9.022;2023-08-06T13:12:12;13.90;;;13.40;;
2622;SDS011;1321;48.690;9.022;2023-08-06T13:14:57;13.57;;;13.20;;
2622;SDS011;1321;48.690;9.022;2023-08-06T13:17:30;13.50;;;13.17;;
2622;SDS011;1321;48.690;9.022;2023-08-06T13:20:05;13.23;;;12.83;;
2622;SDS011;1321;48.690;9.022;2023-08-06T13:22:47;12.60;;;12.40;;
2622;SDS011;1321;48.690;9.022;2023-08-06T13:25:20;13.43;;;13.10;;
2622;SDS011;1321;48.690;9.022;2023-08-06T13:28:02;13.20;;;12.80;;
2622;SDS011;1321;48.690;9.022;2023-08-06T13:30:36;12.73;;;12.37;;
2622;SDS011;1321;48.690;9.022;2023-08-06T13:33:21;12.60;;;12.30;;
2622;SDS011;1321;48.690;9.022;2023-08-06T13:36:00;12.47;;;12.17;;
2622;SDS011;1321;48.690;9.022;2023-08-06T13:38:40;13.07;;;12.70;;
2622;SDS011;1321;48.690;9.022;2023-08-06T13:41:17;13.00;;;12.70;;
2622;SDS011;1321;48.690;9.022;2023-08-06T13:43:51;13.10;;;12.50;;
2622;SDS011;1321;48.690;9.022;2023-08-06T13:46:24;12.50;;;12.30;;
2622;SDS011;1321;48.690;9.022;2023-08-06T13:48:58;12.60;;;12.30;;
2622;SDS011;1321;48.690;9.022;2023-08-06T13:51:34;12.80;;;12.60;;
2622;SDS011;1321;48.690;9.022;2023-08-06T13:54:13;13.30;;;13.00;;
2622;SDS011;1321;48.690;9.022;2023-08-06T13:56:53;12.40;;;12.20;;
2622;SDS011;1321;48.690;9.022;2023-08-06T13:59:28;13.30;;;12.50;;
2622;SDS011;1321;48.690;9.022;2023-08-06T14:02:01;13.60;;;13.30;;
2622;SDS011;1321;48.690;9.022;2023-08-06T14:04:31;13.30;;;13.00;;
2622;SDS011;1321;48.690;9.022;2023-08-06T14:07:12;13.80;;;13.20;;
2622;SDS011;1321;48.690;9.022;2023-08-06T14:09:57;13.03;;;12.80;;
2622;SDS011;1321;48.690;9.022;2023-08-06T14:12:31;13.40;;;13.10;;
2622;SDS011;1321;48.690;9.022;2023-08-06T14:15:00;13.30;;;13.00;;
2622;SDS011;1321;48.690;9.022;2023-08-06T14:17:32;13.03;;;12.80;;
2622;SDS011;1321;48.690;9.022;2023-08-06T14:20:15;13.40;;;13.10;;
2622;SDS011;1321;48.690;9.022;2023-08-06T14:22:51;13.10;;;12.80;;
2622;SDS011;1321;48.690;9.022;2023-08-06T14:25:30;13.47;;;13.10;;
2622;SDS011;1321;48.690;9.022;2023-08-06T14:28:04;13.03;;;12.73;;
2622;SDS011;1321;48.690;9.022;2023-08-06T14:30:44;13.60;;;13.30;;
2622;SDS011;1321;48.690;9.022;2023-08-06T14:33:19;13.93;;;13.63;;
2622;SDS011;1321;48.690;9.022;2023-08-06T14:35:54;14.43;;;14.03;;
2622;SDS011;1321;48.690;9.022;2023-08-06T14:38:33;14.43;;;14.10;;
2622;SDS011;1321;48.690;9.022;2023-08-06T14:41:21;13.87;;;13.57;;
2622;SDS011;1321;48.690;9.022;2023-08-06T14:43:52;14.10;;;13.70;;
2622;SDS011;1321;48.690;9.022;2023-08-06T14:46:32;14.00;;;13.70;;
2622;SDS011;1321;48.690;9.022;2023-08-06T14:49:04;13.67;;;13.37;;
2622;SDS011;1321;48.690;9.022;2023-08-06T14:51:35;13.70;;;13.40;;
2622;SDS011;1321;48.690;9.022;2023-08-06T14:54:10;13.80;;;13.30;;
2622;SDS011;1321;48.690;9.022;2023-08-06T14:56:46;13.83;;;13.53;;
2622;SDS011;1321;48.690;9.022;2023-08-06T14:59:21;13.17;;;12.90;;
2622;SDS011;1321;48.690;9.022;2023-08-06T15:01:54;13.30;;;13.00;;
2622;SDS011;1321;48.690;9.022;2023-08-06T15:04:29;13.43;;;13.13;;
2622;SDS011;1321;48.690;9.022;2023-08-06T15:06:59;13.20;;;12.90;;
2622;SDS011;1321;48.690;9.022;2023-08-06T15:09:36;13.50;;;13.20;;
2622;SDS011;1321;48.690;9.022;2023-08-06T15:12:31;13.60;;;13.30;;
2622;SDS011;1321;48.690;9.022;2023-08-06T15:15:02;13.10;;;12.80;;
2622;SDS011;1321;48.690;9.022;2023-08-06T15:17:35;13.40;;;13.10;;
2622;SDS011;1321;48.690;9.022;2023-08-06T15:20:15;13.53;;;13.20;;
2622;SDS011;1321;48.690;9.022;2023-08-06T15:22:56;13.30;;;13.00;;
2622;SDS011;1321;48.690;9.022;2023-08-06T15:25:35;13.00;;;12.70;;
2622;SDS011;1321;48.690;9.022;2023-08-06T15:28:09;13.53;;;13.13;;
2622;SDS011;1321;48.690;9.022;2023-08-06T15:30:40;13.43;;;13.13;;
2622;SDS011;1321;48.690;9.022;2023-08-06T15:33:24;14.00;;;13.53;;
2622;SDS011;1321;48.690;9.022;2023-08-06T15:35:56;13.40;;;13.10;;
2622;SDS011;1321;48.690;9.022;2023-08-06T15:38:29;13.00;;;12.70;;
2622;SDS011;1321;48.690;9.022;2023-08-06T15:41:06;13.50;;;13.20;;
2622;SDS011;1321;48.690;9.022;2023-08-06T15:43:47;13.90;;;13.30;;